Time;durP1;ratioP1;P1;durP2;ratioP2;P2;SDS_P1;SDS_P2;PMS_P1;PMS_P2;Temp;Humidity;BMP_temperature;BMP_pressure;BME280_temperature;BME280_humidity;BME280_pressure;Samples;Min_cycle;Max_cycle;Signal;HPM_P1;HPM_P2
2023/06/11 00:02:15;;;;;;;15.97;10.20;;;21.40;70.00;;;;;;5087163;28;20472;-80
2023/06/11 00:04:45;;;;;;;14.70;10.13;;;21.40;70.10;;;;;;5085463;28;20943;-78
2023/06/11 00:07:14;;;;;;;17.53;11.17;;;21.30;70.10;;;;;;5098502;28;20448;-79
2023/06/11 00:09:43;;;;;;;16.03;10.40;;;21.30;70.20;;;;;;5104457;28;21403;-81
2023/06/11 00:12:11;;;;;;;12.37;10.40;;;21.30;70.20;;;;;;5104547;28;21237;-81
2023/06/11 00:14:39;;;;;;;14.50;10.03;;;21.30;70.30;;;;;;5086499;28;20965;-80
2023/06/11 00:17:07;;;;;;;16.03;11.00;;;21.40;70.30;;;;;;5092695;28;20456;-84
2023/06/11 00:19:35;;;;;;;15.43;10.83;;;21.40;70.30;;;;;;5091942;28;20710;-80
2023/06/11 00:22:05;;;;;;;13.63;10.50;;;21.40;70.20;;;;;;5091009;28;20472;-82
2023/06/11 00:24:33;;;;;;;20.23;10.80;;;21.40;70.20;;;;;;5105973;28;20491;-82
2023/06/11 00:27:02;;;;;;;14.13;10.40;;;21.30;70.20;;;;;;5107020;28;20483;-80
2023/06/11 00:29:31;;;;;;;14.97;11.63;;;21.30;70.20;;;;;;5079477;28;20472;-82
2023/06/11 00:31:59;;;;;;;16.07;11.27;;;21.20;70.30;;;;;;5105065;28;20463;-80
2023/06/11 00:34:27;;;;;;;13.20;10.00;;;21.10;70.30;;;;;;5099206;28;20464;-80
2023/06/11 00:36:55;;;;;;;16.23;10.67;;;21.00;70.40;;;;;;5107585;28;20444;-80
2023/06/11 00:39:23;;;;;;;15.83;10.90;;;21.00;70.50;;;;;;5104667;28;20528;-81
2023/06/11 00:41:53;;;;;;;16.63;11.43;;;20.90;70.50;;;;;;5089377;28;20464;-84
2023/06/11 00:44:22;;;;;;;17.73;10.33;;;20.80;70.70;;;;;;5100210;28;20437;-84
2023/06/11 00:46:53;;;;;;;16.73;11.40;;;20.80;70.80;;;;;;5089898;28;20977;-85
2023/06/11 00:49:22;;;;;;;14.53;11.27;;;20.70;70.90;;;;;;5080823;28;20455;-82
2023/06/11 00:51:51;;;;;;;14.10;11.03;;;20.70;71.00;;;;;;5107261;28;20454;-83
2023/06/11 00:54:19;;;;;;;14.30;11.13;;;20.60;71.10;;;;;;5102773;28;20463;-82
2023/06/11 00:56:47;;;;;;;16.53;11.80;;;20.60;71.20;;;;;;5103840;28;20931;-81
2023/06/11 00:59:19;;;;;;;17.00;10.97;;;20.60;71.20;;;;;;5090429;28;20540;-87
2023/06/11 01:01:53;;;;;;;13.83;11.57;;;20.60;71.30;;;;;;5090472;28;20480;-85
2023/06/11 01:04:23;;;;;;;16.00;11.47;;;20.50;71.40;;;;;;5096455;28;20485;-85
2023/06/11 01:06:57;;;;;;;17.00;12.03;;;20.50;71.40;;;;;;5092414;28;20452;-86
2023/06/11 01:09:27;;;;;;;16.70;11.77;;;20.50;71.50;;;;;;5095696;28;21200;-82
2023/06/11 01:11:57;;;;;;;14.07;11.03;;;20.40;71.50;;;;;;5089753;28;20606;-81
2023/06/11 01:14:25;;;;;;;15.23;11.47;;;20.40;71.50;;;;;;5089211;28;20487;-81
2023/06/11 01:17:02;;;;;;;16.90;10.20;;;20.40;71.70;;;;;;5108663;28;20463;-81
2023/06/11 01:19:52;;;;;;;14.53;11.10;;;20.40;71.70;;;;;;5088172;28;20819;-83
2023/06/11 01:22:30;;;;;;;18.07;11.47;;;20.30;71.70;;;;;;5087814;28;20469;-82
2023/06/11 01:25:16;;;;;;;14.40;11.10;;;20.30;71.70;;;;;;5090435;28;20569;-83
2023/06/11 01:28:00;;;;;;;18.13;12.60;;;20.20;71.80;;;;;;5088735;28;20526;-85
2023/06/11 01:30:30;;;;;;;14.87;11.27;;;20.10;72.00;;;;;;5101683;28;20496;-85
2023/06/11 01:33:00;;;;;;;14.87;12.10;;;20.10;72.10;;;;;;5093844;28;20450;-82
2023/06/11 01:35:35;;;;;;;15.10;12.70;;;20.20;72.10;;;;;;5093818;28;20458;-81
2023/06/11 01:38:05;;;;;;;17.43;12.13;;;20.10;72.10;;;;;;5092868;28;20491;-82
2023/06/11 01:40:37;;;;;;;15.70;12.10;;;20.00;72.20;;;;;;5108218;28;20480;-81
2023/06/11 01:43:14;;;;;;;14.23;11.87;;;20.00;72.40;;;;;;5092337;28;20467;-82
2023/06/11 01:45:43;;;;;;;16.17;11.57;;;20.00;72.40;;;;;;5086687;28;20491;-81
2023/06/11 01:48:16;;;;;;;16.50;12.00;;;20.00;72.50;;;;;;5087911;28;20458;-83
2023/06/11 01:50:45;;;;;;;18.30;12.87;;;20.00;72.70;;;;;;5085575;28;20463;-82
2023/06/11 01:53:16;;;;;;;14.53;12.13;;;20.00;72.60;;;;;;5094666;28;20443;-81
2023/06/11 01:55:45;;;;;;;15.87;12.40;;;20.00;72.60;;;;;;5089880;28;20541;-82
2023/06/11 01:58:16;;;;;;;20.83;12.40;;;20.00;72.60;;;;;;5109510;28;20487;-81
2023/06/11 02:00:47;;;;;;;16.10;11.73;;;20.00;72.60;;;;;;5090374;28;20462;-82
2023/06/11 02:03:15;;;;;;;14.47;11.60;;;19.90;72.50;;;;;;5096949;28;20566;-82
2023/06/11 02:05:45;;;;;;;20.90;12.67;;;19.90;72.60;;;;;;5092786;28;20816;-81
2023/06/11 02:08:13;;;;;;;17.13;12.37;;;19.90;72.60;;;;;;5087495;28;20483;-82
2023/06/11 02:10:41;;;;;;;15.53;12.43;;;19.80;72.70;;;;;;5085093;28;20543;-81
2023/06/11 02:13:09;;;;;;;17.33;13.10;;;19.70;72.90;;;;;;5080884;28;20578;-81
2023/06/11 02:15:38;;;;;;;18.60;12.13;;;19.60;73.00;;;;;;5089936;28;20504;-83
2023/06/11 02:18:06;;;;;;;24.37;13.13;;;19.60;73.10;;;;;;5109555;28;20463;-81
2023/06/11 02:20:35;;;;;;;16.50;11.87;;;19.60;73.20;;;;;;5086436;28;20970;-83
2023/06/11 02:23:07;;;;;;;15.50;12.00;;;19.70;73.20;;;;;;5094782;28;20469;-87
2023/06/11 02:25:35;;;;;;;15.50;11.87;;;19.80;73.10;;;;;;5109919;28;20545;-82
2023/06/11 02:28:06;;;;;;;13.80;10.70;;;19.80;73.10;;;;;;5094973;28;20446;-85
2023/06/11 02:30:34;;;;;;;19.00;12.83;;;19.80;73.00;;;;;;5089938;28;20468;-81
2023/06/11 02:33:04;;;;;;;22.80;12.13;;;19.80;72.90;;;;;;5087094;28;20489;-80
2023/06/11 02:35:34;;;;;;;19.47;12.20;;;19.80;72.80;;;;;;5089604;28;20492;-79
2023/06/11 02:38:02;;;;;;;21.47;13.50;;;19.70;72.90;;;;;;5095685;28;20483;-82
2023/06/11 02:40:30;;;;;;;16.73;12.53;;;19.70;73.00;;;;;;5094004;28;20851;-83
2023/06/11 02:42:59;;;;;;;15.50;11.87;;;19.60;73.10;;;;;;5092002;28;20487;-83
2023/06/11 02:45:27;;;;;;;15.93;12.67;;;19.60;73.20;;;;;;5110420;28;20456;-85
2023/06/11 02:47:55;;;;;;;14.50;11.43;;;19.60;73.30;;;;;;5094136;28;20969;-84
2023/06/11 02:50:24;;;;;;;16.30;12.93;;;19.70;73.30;;;;;;5109749;28;20519;-81
2023/06/11 02:52:53;;;;;;;18.60;12.10;;;19.80;73.20;;;;;;5106935;28;20444;-83
2023/06/11 02:55:20;;;;;;;14.97;11.23;;;19.90;73.20;;;;;;5089983;28;20456;-82
2023/06/11 02:57:48;;;;;;;15.20;11.83;;;19.90;73.10;;;;;;5091448;28;20553;-81
2023/06/11 03:00:17;;;;;;;19.33;12.23;;;19.90;72.90;;;;;;5089235;28;20448;-80
2023/06/11 03:02:45;;;;;;;21.17;11.70;;;20.00;72.70;;;;;;5087933;28;21033;-81
2023/06/11 03:05:16;;;;;;;19.00;12.13;;;19.90;72.70;;;;;;5096555;28;20500;-80
2023/06/11 03:07:45;;;;;;;20.40;12.90;;;19.90;72.60;;;;;;5086274;28;20830;-82
2023/06/11 03:10:14;;;;;;;14.90;12.80;;;19.90;72.60;;;;;;5091483;28;20478;-87
2023/06/11 03:12:41;;;;;;;13.60;11.53;;;19.90;72.50;;;;;;5106451;28;20512;-86
2023/06/11 03:15:10;;;;;;;16.07;11.90;;;19.90;72.50;;;;;;5088760;28;20444;-80
2023/06/11 03:17:40;;;;;;;13.10;11.47;;;19.90;72.50;;;;;;5085045;28;20456;-82
2023/06/11 03:20:09;;;;;;;18.20;12.63;;;19.90;72.40;;;;;;5091008;28;20985;-81
2023/06/11 03:22:38;;;;;;;20.03;13.27;;;19.90;72.30;;;;;;5093862;27;20458;-81
2023/06/11 03:25:09;;;;;;;16.73;12.40;;;19.80;72.30;;;;;;5085874;28;20492;-82
2023/06/11 03:27:38;;;;;;;20.20;11.53;;;19.80;72.30;;;;;;5108945;28;21330;-82
2023/06/11 03:30:08;;;;;;;17.90;11.30;;;19.80;72.30;;;;;;5102071;28;20470;-82
2023/06/11 03:32:38;;;;;;;14.10;11.90;;;19.80;72.30;;;;;;5088149;28;20467;-81
2023/06/11 03:35:08;;;;;;;15.87;12.10;;;19.80;72.20;;;;;;5088784;28;20941;-79
2023/06/11 03:37:36;;;;;;;15.47;11.50;;;19.80;72.20;;;;;;5082079;28;20456;-82
2023/06/11 03:40:07;;;;;;;19.83;12.67;;;19.70;72.10;;;;;;5086653;28;21346;-82
2023/06/11 03:42:36;;;;;;;17.87;10.53;;;19.70;72.20;;;;;;5085537;28;20459;-82
2023/06/11 03:45:06;;;;;;;19.63;13.00;;;19.70;72.20;;;;;;5089639;28;20495;-80
2023/06/11 03:47:34;;;;;;;15.83;11.10;;;19.70;72.20;;;;;;5083852;28;20491;-82
2023/06/11 03:50:04;;;;;;;16.27;12.60;;;19.70;72.30;;;;;;5088728;28;20459;-82
2023/06/11 03:52:32;;;;;;;24.03;12.37;;;19.70;72.30;;;;;;5092099;28;20474;-81
2023/06/11 03:55:00;;;;;;;16.13;11.70;;;19.60;72.20;;;;;;5090995;28;20487;-80
2023/06/11 03:57:29;;;;;;;16.93;12.57;;;19.60;72.20;;;;;;5087621;28;21086;-81
2023/06/11 04:00:14;;;;;;;18.77;13.43;;;19.60;72.20;;;;;;5097773;28;20535;-81
2023/06/11 04:02:43;;;;;;;12.60;10.80;;;19.60;72.40;;;;;;5084225;28;20463;-83
2023/06/11 04:05:15;;;;;;;16.97;12.57;;;19.60;72.40;;;;;;5088503;28;20460;-83
2023/06/11 04:07:49;;;;;;;17.60;11.80;;;19.60;72.40;;;;;;5090672;28;20471;-82
2023/06/11 04:10:17;;;;;;;15.50;11.57;;;19.60;72.40;;;;;;5097036;28;20478;-81
2023/06/11 04:12:45;;;;;;;15.50;12.83;;;19.70;72.50;;;;;;5092511;28;20494;-80
2023/06/11 04:15:14;;;;;;;15.97;12.40;;;19.70;72.50;;;;;;5103763;28;20844;-81
2023/06/11 04:17:43;;;;;;;15.53;10.70;;;19.70;72.50;;;;;;5088139;28;20471;-81
2023/06/11 04:20:11;;;;;;;15.90;12.03;;;19.80;72.50;;;;;;5091909;28;20497;-83
2023/06/11 04:22:40;;;;;;;17.67;11.90;;;19.90;72.50;;;;;;5110365;28;20458;-85
2023/06/11 04:25:11;;;;;;;15.23;11.37;;;19.90;72.60;;;;;;5094272;28;20476;-86
2023/06/11 04:27:40;;;;;;;15.17;12.03;;;20.00;72.60;;;;;;5092087;28;20520;-85
2023/06/11 04:30:14;;;;;;;20.47;12.67;;;20.10;72.60;;;;;;5093265;28;21038;-86
2023/06/11 04:32:47;;;;;;;14.47;11.40;;;20.20;72.50;;;;;;5086893;28;20477;-79
2023/06/11 04:35:16;;;;;;;17.37;12.80;;;20.30;72.50;;;;;;5092576;28;20463;-79
2023/06/11 04:37:47;;;;;;;14.30;11.13;;;20.40;72.40;;;;;;5086122;28;20453;-81
2023/06/11 04:40:20;;;;;;;16.47;11.60;;;20.60;72.40;;;;;;5085899;28;20457;-85
2023/06/11 04:42:49;;;;;;;18.00;11.77;;;20.70;72.40;;;;;;5089781;28;20479;-84
2023/06/11 04:45:18;;;;;;;13.90;11.00;;;20.80;72.40;;;;;;5090162;28;20961;-82
2023/06/11 04:47:49;;;;;;;14.00;10.87;;;20.90;72.40;;;;;;5102363;28;20451;-82
2023/06/11 04:50:20;;;;;;;14.17;11.47;;;21.00;72.20;;;;;;5080627;28;20517;-81
2023/06/11 04:52:52;;;;;;;18.00;12.00;;;21.20;72.00;;;;;;5084597;28;20466;-81
2023/06/11 04:55:24;;;;;;;14.17;10.60;;;21.30;71.60;;;;;;5089237;28;20544;-82
2023/06/11 04:57:54;;;;;;;14.70;10.60;;;21.30;71.50;;;;;;5080851;28;20448;-81
2023/06/11 05:00:23;;;;;;;15.90;11.40;;;21.40;71.20;;;;;;5087918;28;20968;-80
2023/06/11 05:02:54;;;;;;;11.60;9.80;;;21.40;70.90;;;;;;5103212;28;20501;-81
2023/06/11 05:05:22;;;;;;;17.47;11.33;;;21.40;70.70;;;;;;5086790;28;20529;-81
2023/06/11 05:07:51;;;;;;;13.37;10.13;;;21.40;70.60;;;;;;5110077;28;20535;-83
2023/06/11 05:10:20;;;;;;;11.63;10.43;;;21.50;70.60;;;;;;5091043;28;20827;-81
2023/06/11 05:12:48;;;;;;;12.67;10.87;;;21.60;70.60;;;;;;5091669;28;20501;-81
2023/06/11 05:15:17;;;;;;;14.30;10.30;;;21.60;70.40;;;;;;5087926;28;20966;-83
2023/06/11 05:17:45;;;;;;;13.60;10.73;;;21.70;70.30;;;;;;5101894;28;20474;-82
2023/06/11 05:20:16;;;;;;;13.90;11.37;;;21.90;70.20;;;;;;5081451;28;20471;-82
2023/06/11 05:22:46;;;;;;;16.40;10.53;;;22.00;70.10;;;;;;5080253;28;20456;-82
2023/06/11 05:25:19;;;;;;;13.97;10.77;;;22.20;69.90;;;;;;5095035;28;20984;-82
2023/06/11 05:27:48;;;;;;;11.13;9.87;;;22.30;69.70;;;;;;5090028;28;20449;-82
2023/06/11 05:30:17;;;;;;;11.93;9.87;;;22.50;69.60;;;;;;5087600;28;20467;-82
2023/06/11 05:32:45;;;;;;;15.53;10.57;;;22.70;69.40;;;;;;5084492;28;20540;-82
2023/06/11 05:35:15;;;;;;;15.70;10.03;;;22.80;69.40;;;;;;5086096;28;20456;-81
2023/06/11 05:37:47;;;;;;;12.13;9.90;;;23.00;69.10;;;;;;5091909;28;20455;-81
2023/06/11 05:40:16;;;;;;;12.80;9.73;;;23.50;68.70;;;;;;5086832;28;20495;-81
2023/06/11 05:42:44;;;;;;;12.70;10.27;;;24.30;67.40;;;;;;5086641;28;20445;-81
2023/06/11 05:45:12;;;;;;;11.90;9.93;;;25.20;65.80;;;;;;5087471;28;21054;-81
2023/06/11 05:47:41;;;;;;;12.80;9.97;;;26.00;64.50;;;;;;5089692;28;20452;-81
2023/06/11 05:50:12;;;;;;;14.10;10.67;;;26.70;63.40;;;;;;5084754;28;20461;-83
2023/06/11 05:52:42;;;;;;;13.23;9.70;;;27.50;62.40;;;;;;5081466;28;20444;-81
2023/06/11 05:55:10;;;;;;;11.87;9.93;;;28.00;61.30;;;;;;5088519;28;20448;-81
2023/06/11 05:57:38;;;;;;;13.83;9.70;;;28.50;60.60;;;;;;5083070;28;20455;-83
2023/06/11 06:00:12;;;;;;;14.13;10.80;;;28.80;59.70;;;;;;5089677;28;20817;-83
2023/06/11 06:02:44;;;;;;;10.30;8.87;;;29.20;58.80;;;;;;5106839;28;20476;-82
2023/06/11 06:05:20;;;;;;;14.73;9.20;;;29.50;58.00;;;;;;5076116;28;20505;-82
2023/06/11 06:07:49;;;;;;;11.70;9.10;;;29.80;57.50;;;;;;5080705;28;20664;-82
2023/06/11 06:10:18;;;;;;;13.13;10.17;;;29.90;56.80;;;;;;5086522;28;20479;-83
2023/06/11 06:12:46;;;;;;;13.20;10.00;;;29.70;56.60;;;;;;5090354;28;20847;-80
2023/06/11 06:15:14;;;;;;;14.70;9.83;;;29.40;56.80;;;;;;5093915;28;21270;-82
2023/06/11 06:17:43;;;;;;;11.60;9.17;;;29.00;56.80;;;;;;5090309;28;20467;-81
2023/06/11 06:20:17;;;;;;;13.43;8.83;;;28.50;56.90;;;;;;5092217;28;20452;-82
2023/06/11 06:22:45;;;;;;;12.87;9.43;;;28.10;57.40;;;;;;5085845;28;20529;-82
2023/06/11 06:25:15;;;;;;;11.47;9.57;;;27.70;57.70;;;;;;5106549;28;20471;-82
2023/06/11 06:27:45;;;;;;;11.33;8.63;;;27.30;58.20;;;;;;5093724;28;20508;-81
2023/06/11 06:30:15;;;;;;;12.63;9.63;;;26.90;58.30;;;;;;5098538;28;20974;-81
2023/06/11 06:32:44;;;;;;;11.60;10.07;;;26.50;58.70;;;;;;5091257;28;20452;-80
2023/06/11 06:35:13;;;;;;;12.67;10.43;;;26.00;59.10;;;;;;5090570;28;21098;-81
2023/06/11 06:37:41;;;;;;;17.10;9.90;;;25.50;59.60;;;;;;5095106;28;20526;-79
2023/06/11 06:40:12;;;;;;;13.10;8.63;;;25.20;60.10;;;;;;5085038;28;20460;-82
2023/06/11 06:42:41;;;;;;;12.80;9.70;;;25.00;60.60;;;;;;5092016;28;20440;-83
2023/06/11 06:45:14;;;;;;;12.93;9.80;;;24.90;61.10;;;;;;5108463;28;20472;-83
2023/06/11 06:47:42;;;;;;;16.23;10.70;;;24.80;61.30;;;;;;5090688;28;20456;-81
2023/06/11 06:50:11;;;;;;;11.10;9.73;;;24.70;61.70;;;;;;5106532;28;20460;-81
2023/06/11 06:52:41;;;;;;;11.50;9.70;;;24.60;61.70;;;;;;5084112;28;20468;-83
2023/06/11 06:55:10;;;;;;;14.43;10.70;;;24.50;61.90;;;;;;5096116;28;20452;-82
2023/06/11 06:57:39;;;;;;;12.03;10.20;;;24.40;62.00;;;;;;5107477;28;20452;-81
2023/06/11 07:00:14;;;;;;;12.47;10.47;;;24.40;62.20;;;;;;5096826;28;20448;-80
2023/06/11 07:02:47;;;;;;;12.20;9.43;;;24.40;62.40;;;;;;5084758;28;20821;-82
2023/06/11 07:05:16;;;;;;;12.57;10.23;;;24.40;62.60;;;;;;5106997;28;20438;-83
2023/06/11 07:07:45;;;;;;;12.83;10.30;;;24.30;62.70;;;;;;5090711;28;20452;-79
2023/06/11 07:10:15;;;;;;;13.67;9.97;;;24.30;62.70;;;;;;5092357;28;20459;-79
2023/06/11 07:12:43;;;;;;;17.23;9.83;;;24.30;62.80;;;;;;5102820;28;21171;-79
2023/06/11 07:15:12;;;;;;;16.13;9.70;;;24.30;63.00;;;;;;5083386;28;20483;-78
2023/06/11 07:17:40;;;;;;;11.60;9.60;;;24.30;63.00;;;;;;5092679;28;20977;-81
2023/06/11 07:20:09;;;;;;;14.53;10.57;;;24.30;63.10;;;;;;5084804;28;20456;-80
2023/06/11 07:22:38;;;;;;;13.90;10.77;;;24.20;63.10;;;;;;5103625;28;20444;-79
2023/06/11 07:25:07;;;;;;;12.50;9.83;;;24.20;63.00;;;;;;5090415;28;20460;-79
2023/06/11 07:27:35;;;;;;;13.73;9.90;;;24.30;63.00;;;;;;5090777;28;20543;-80
2023/06/11 07:30:05;;;;;;;12.17;10.77;;;24.20;62.90;;;;;;5092226;28;20464;-80
2023/06/11 07:32:36;;;;;;;11.93;9.63;;;24.30;63.00;;;;;;5090116;28;20467;-80
2023/06/11 07:35:06;;;;;;;12.53;10.77;;;24.30;63.20;;;;;;5104393;28;20460;-80
2023/06/11 07:37:35;;;;;;;12.37;9.77;;;24.30;63.10;;;;;;5105080;28;20442;-81
2023/06/11 07:40:05;;;;;;;12.80;10.40;;;24.40;63.10;;;;;;5109212;28;20452;-80
2023/06/11 07:42:35;;;;;;;12.90;10.23;;;24.50;63.00;;;;;;5083660;28;20966;-80
2023/06/11 07:45:06;;;;;;;11.13;9.37;;;24.50;63.10;;;;;;5080963;28;20460;-79
2023/06/11 07:47:37;;;;;;;12.47;9.50;;;24.50;63.00;;;;;;5082353;28;20559;-79
2023/06/11 07:50:07;;;;;;;12.27;9.50;;;24.60;62.80;;;;;;5106463;28;20654;-79
2023/06/11 07:52:37;;;;;;;12.30;9.30;;;24.60;62.70;;;;;;5081791;28;20437;-78
2023/06/11 07:55:25;;;;;;;11.30;9.77;;;24.70;62.60;;;;;;5106005;28;21263;-81
2023/06/11 07:57:53;;;;;;;16.70;12.23;;;24.70;62.40;;;;;;5106237;28;20539;-80
2023/06/11 08:00:21;;;;;;;12.27;9.67;;;24.80;62.30;;;;;;5104981;28;20991;-79
2023/06/11 08:02:51;;;;;;;11.90;9.27;;;24.80;62.10;;;;;;5098251;28;20456;-79
2023/06/11 08:05:21;;;;;;;13.67;10.07;;;24.80;62.10;;;;;;5091493;28;20463;-80
2023/06/11 08:07:51;;;;;;;12.80;11.00;;;24.80;62.10;;;;;;5091585;28;20468;-79
2023/06/11 08:10:19;;;;;;;16.70;10.13;;;24.90;62.00;;;;;;5089430;28;20489;-78
2023/06/11 08:12:47;;;;;;;13.53;9.07;;;24.90;61.70;;;;;;5086380;28;20982;-80
2023/06/11 08:15:15;;;;;;;10.97;8.90;;;24.90;61.60;;;;;;5090142;28;20576;-78
2023/06/11 08:17:43;;;;;;;14.03;9.90;;;25.00;61.30;;;;;;5105134;28;20943;-78
2023/06/11 08:20:13;;;;;;;16.60;10.77;;;25.00;61.40;;;;;;5094219;28;20444;-83
2023/06/11 08:22:41;;;;;;;11.60;8.77;;;25.10;61.20;;;;;;5102659;28;20568;-79
2023/06/11 08:25:11;;;;;;;12.07;9.57;;;25.10;61.00;;;;;;5108719;28;20443;-79
2023/06/11 08:27:39;;;;;;;11.87;9.57;;;25.10;60.70;;;;;;5109372;28;20499;-80
2023/06/11 08:30:09;;;;;;;12.43;9.57;;;25.20;60.60;;;;;;5105157;28;20544;-79
2023/06/11 08:32:37;;;;;;;11.93;8.50;;;25.20;60.50;;;;;;5102193;28;20838;-78
2023/06/11 08:35:06;;;;;;;15.00;8.40;;;25.20;60.30;;;;;;5085908;28;20501;-80
2023/06/11 08:37:35;;;;;;;11.93;9.23;;;25.20;59.90;;;;;;5102977;28;20440;-79
2023/06/11 08:40:05;;;;;;;12.80;9.83;;;25.20;59.80;;;;;;5099855;28;20527;-79
2023/06/11 08:42:33;;;;;;;12.60;9.30;;;25.20;59.70;;;;;;5102154;28;20448;-80
2023/06/11 08:45:01;;;;;;;15.30;9.67;;;25.30;59.60;;;;;;5103767;28;20451;-79
2023/06/11 08:47:31;;;;;;;13.97;8.90;;;25.30;59.50;;;;;;5081847;28;21018;-80
2023/06/11 08:50:02;;;;;;;12.13;9.30;;;25.30;59.20;;;;;;5104768;28;20491;-81
2023/06/11 08:52:34;;;;;;;12.17;9.40;;;25.40;58.80;;;;;;5084189;28;20540;-81
2023/06/11 08:55:04;;;;;;;11.17;8.27;;;25.40;58.50;;;;;;5108501;28;20439;-82
2023/06/11 08:57:32;;;;;;;15.00;9.73;;;25.40;58.40;;;;;;5092284;28;20468;-83
2023/06/11 09:00:00;;;;;;;12.07;9.40;;;25.50;58.50;;;;;;5090708;28;20491;-80
2023/06/11 09:02:28;;;;;;;12.37;9.53;;;25.50;58.50;;;;;;5106021;28;20479;-83
2023/06/11 09:04:56;;;;;;;12.10;8.80;;;25.60;58.40;;;;;;5086708;28;20452;-83
2023/06/11 09:07:25;;;;;;;12.50;7.90;;;25.60;58.30;;;;;;5105176;28;20515;-80
2023/06/11 09:10:05;;;;;;;12.33;8.50;;;25.60;57.90;;;;;;5096893;28;20795;-80
2023/06/11 09:12:33;;;;;;;13.10;8.47;;;25.70;57.40;;;;;;5103615;28;21012;-80
2023/06/11 09:15:01;;;;;;;11.97;8.33;;;25.70;57.20;;;;;;5091893;28;20492;-79
2023/06/11 09:17:35;;;;;;;12.13;7.37;;;25.70;57.10;;;;;;5087985;28;20458;-79
2023/06/11 09:20:06;;;;;;;18.57;7.23;;;25.80;55.90;;;;;;5090933;28;20458;-80
2023/06/11 09:22:35;;;;;;;8.37;5.73;;;25.80;55.20;;;;;;5107451;28;20498;-81
2023/06/11 09:25:07;;;;;;;11.60;6.47;;;25.80;55.00;;;;;;5106583;28;20444;-81
2023/06/11 09:27:36;;;;;;;9.83;6.70;;;25.80;53.70;;;;;;5106730;28;20456;-81
2023/06/11 09:30:08;;;;;;;9.90;6.17;;;25.90;53.70;;;;;;5089175;28;20463;-81
2023/06/11 09:32:40;;;;;;;11.30;6.40;;;26.00;53.30;;;;;;5089619;28;20475;-80
2023/06/11 09:35:10;;;;;;;10.93;6.30;;;26.00;53.00;;;;;;5106082;28;20825;-81
2023/06/11 09:37:43;;;;;;;12.97;6.80;;;26.00;52.90;;;;;;5096506;28;20441;-81
2023/06/11 09:40:16;;;;;;;9.73;6.83;;;26.00;52.40;;;;;;5104202;28;20451;-80
2023/06/11 09:42:47;;;;;;;11.30;6.57;;;26.10;52.40;;;;;;5108081;28;20456;-81
2023/06/11 09:45:16;;;;;;;9.70;5.97;;;26.20;52.40;;;;;;5083640;28;20546;-80
2023/06/11 09:48:05;;;;;;;11.53;7.37;;;26.20;52.20;;;;;;5105423;28;20576;-82
2023/06/11 09:50:35;;;;;;;14.83;5.90;;;26.20;51.50;;;;;;5083374;28;20848;-79
2023/06/11 09:53:04;;;;;;;11.77;6.47;;;26.30;51.60;;;;;;5110508;28;20440;-82
2023/06/11 09:55:34;;;;;;;9.80;6.30;;;26.30;51.20;;;;;;5106647;28;20526;-81
2023/06/11 09:58:03;;;;;;;7.60;5.53;;;26.40;50.80;;;;;;5111267;27;20443;-81
2023/06/11 10:00:31;;;;;;;11.33;6.60;;;26.40;50.70;;;;;;5090337;28;20468;-81
2023/06/11 10:03:00;;;;;;;11.23;6.40;;;26.40;50.80;;;;;;5093091;28;20456;-81
2023/06/11 10:05:29;;;;;;;10.53;6.07;;;26.40;50.40;;;;;;5107322;28;21400;-80
2023/06/11 10:08:03;;;;;;;8.43;5.30;;;26.50;50.10;;;;;;5089593;28;20475;-81
2023/06/11 10:10:37;;;;;;;11.33;6.57;;;26.50;49.30;;;;;;5103942;28;20454;-81
2023/06/11 10:13:04;;;;;;;7.97;5.23;;;26.60;49.40;;;;;;5105789;28;20439;-81
2023/06/11 10:15:35;;;;;;;8.93;6.40;;;26.60;49.10;;;;;;5113369;28;20443;-81
2023/06/11 10:18:13;;;;;;;9.93;5.87;;;26.60;49.10;;;;;;5106264;28;20440;-81
2023/06/11 10:20:52;;;;;;;9.33;6.37;;;26.70;49.00;;;;;;5111614;28;20443;-81
2023/06/11 10:23:22;;;;;;;9.00;5.53;;;26.80;48.60;;;;;;5105953;28;20458;-81
2023/06/11 10:25:55;;;;;;;10.80;6.07;;;26.80;48.70;;;;;;5090535;28;20460;-81
2023/06/11 10:28:35;;;;;;;15.73;6.20;;;26.90;48.40;;;;;;5085425;28;20477;-80
2023/06/11 10:31:04;;;;;;;10.90;6.00;;;26.80;48.40;;;;;;5087039;28;20550;-81
2023/06/11 10:33:43;;;;;;;11.77;6.23;;;26.90;48.40;;;;;;5106137;28;20463;-81
2023/06/11 10:36:22;;;;;;;8.33;5.87;;;26.80;48.30;;;;;;5086327;28;20462;-81
2023/06/11 10:38:52;;;;;;;8.37;5.13;;;26.80;48.40;;;;;;5102864;28;20520;-82
2023/06/11 10:41:29;;;;;;;10.73;5.70;;;26.90;48.40;;;;;;5100146;28;20463;-81
2023/06/11 10:43:58;;;;;;;11.37;5.50;;;27.00;48.40;;;;;;5104281;28;20938;-80
2023/06/11 10:46:27;;;;;;;9.50;5.43;;;27.00;48.30;;;;;;5090130;28;20459;-81
2023/06/11 10:48:55;;;;;;;9.10;6.17;;;27.10;48.10;;;;;;5100092;28;20969;-80
2023/06/11 10:51:23;;;;;;;16.20;6.10;;;27.10;48.00;;;;;;5104683;28;22137;-81
2023/06/11 10:53:58;;;;;;;8.50;5.30;;;27.10;48.00;;;;;;5110817;28;20482;-82
2023/06/11 10:56:26;;;;;;;7.60;5.10;;;27.10;47.30;;;;;;5093116;28;20710;-82
2023/06/11 10:58:56;;;;;;;8.60;5.17;;;27.10;47.00;;;;;;5105674;28;20463;-82
2023/06/11 11:01:25;;;;;;;11.03;5.23;;;27.10;45.90;;;;;;5101771;28;20538;-81
2023/06/11 11:03:53;;;;;;;10.90;5.60;;;27.10;45.50;;;;;;5089143;28;20867;-83
2023/06/11 11:06:26;;;;;;;9.40;5.10;;;27.10;45.70;;;;;;5091335;28;20559;-83
2023/06/11 11:08:57;;;;;;;10.57;4.47;;;27.20;45.60;;;;;;5106298;28;20464;-81
2023/06/11 11:11:27;;;;;;;7.63;4.93;;;27.30;45.40;;;;;;5103807;28;20453;-80
2023/06/11 11:13:55;;;;;;;12.50;5.47;;;27.30;45.10;;;;;;5099588;28;20499;-82
2023/06/11 11:16:26;;;;;;;10.03;6.33;;;27.40;45.30;;;;;;5108779;28;20524;-81
2023/06/11 11:19:04;;;;;;;8.60;4.73;;;27.40;44.40;;;;;;5107129;28;20543;-82
2023/06/11 11:21:32;;;;;;;8.67;5.10;;;27.40;43.90;;;;;;5094436;28;20816;-82
2023/06/11 11:24:01;;;;;;;9.90;6.20;;;27.50;44.10;;;;;;5089224;28;20491;-82
2023/06/11 11:26:30;;;;;;;7.30;4.20;;;27.40;44.00;;;;;;5087024;28;20448;-82
2023/06/11 11:28:58;;;;;;;12.07;3.87;;;27.40;43.30;;;;;;5103305;28;21060;-81
2023/06/11 11:31:26;;;;;;;13.83;4.40;;;27.30;42.70;;;;;;5104874;28;20495;-80
2023/06/11 11:33:55;;;;;;;8.00;4.43;;;27.20;42.60;;;;;;5110927;28;20606;-81
2023/06/11 11:36:23;;;;;;;7.10;4.03;;;27.40;42.90;;;;;;5103954;28;20456;-81
2023/06/11 11:38:51;;;;;;;7.50;4.00;;;27.40;42.00;;;;;;5104749;28;20455;-81
2023/06/11 11:41:23;;;;;;;7.90;4.33;;;27.40;41.00;;;;;;5091871;28;20576;-82
2023/06/11 11:43:51;;;;;;;6.70;3.90;;;27.40;40.90;;;;;;5107088;28;20953;-82
2023/06/11 11:46:23;;;;;;;9.43;3.97;;;27.40;41.20;;;;;;5088110;28;20551;-81
2023/06/11 11:48:55;;;;;;;8.47;4.83;;;27.40;41.30;;;;;;5087500;28;20472;-82
2023/06/11 11:51:25;;;;;;;7.70;4.40;;;27.40;41.50;;;;;;5087989;28;20880;-81
2023/06/11 11:53:53;;;;;;;8.67;4.83;;;27.50;41.80;;;;;;5108101;28;20456;-81
2023/06/11 11:56:23;;;;;;;7.00;4.20;;;27.60;41.70;;;;;;5105980;28;20535;-81
2023/06/11 11:58:54;;;;;;;8.90;5.30;;;27.70;41.20;;;;;;5106001;28;20488;-81
2023/06/11 12:01:26;;;;;;;6.57;4.10;;;27.70;41.10;;;;;;5102418;28;20475;-82
2023/06/11 12:03:58;;;;;;;12.80;5.10;;;27.70;40.90;;;;;;5108642;28;20532;-81
2023/06/11 12:06:30;;;;;;;7.83;5.00;;;27.70;41.10;;;;;;5103877;28;20532;-82
2023/06/11 12:08:58;;;;;;;11.47;5.37;;;27.70;41.40;;;;;;5105942;28;20468;-81
2023/06/11 12:11:28;;;;;;;8.90;5.00;;;27.60;41.50;;;;;;5106850;28;20532;-81
2023/06/11 12:13:56;;;;;;;7.53;4.70;;;27.80;41.50;;;;;;5094829;28;20448;-82
2023/06/11 12:16:24;;;;;;;8.10;4.10;;;27.80;41.50;;;;;;5105474;28;20501;-82
2023/06/11 12:19:15;;;;;;;7.70;4.40;;;27.80;41.30;;;;;;5103823;28;20498;-82
2023/06/11 12:21:51;;;;;;;11.43;4.57;;;27.80;41.00;;;;;;5101592;28;20452;-81
2023/06/11 12:24:19;;;;;;;7.13;4.67;;;27.80;41.00;;;;;;5112235;28;20443;-82
2023/06/11 12:26:50;;;;;;;6.50;3.80;;;27.80;41.30;;;;;;5096413;28;20456;-82
2023/06/11 12:29:19;;;;;;;11.50;4.17;;;27.70;41.20;;;;;;5095857;28;20467;-81
2023/06/11 12:31:48;;;;;;;11.80;4.93;;;27.80;41.30;;;;;;5092636;28;20501;-81
2023/06/11 12:34:16;;;;;;;7.40;4.90;;;27.80;41.30;;;;;;5108192;28;20484;-82
2023/06/11 12:36:45;;;;;;;8.00;5.03;;;27.80;41.50;;;;;;5109858;28;20538;-81
2023/06/11 12:39:13;;;;;;;7.50;4.70;;;27.90;41.70;;;;;;5082125;28;20569;-81
2023/06/11 12:41:41;;;;;;;10.67;4.90;;;27.90;41.80;;;;;;5101759;28;20777;-81
2023/06/11 12:44:10;;;;;;;7.73;4.40;;;28.00;41.80;;;;;;5094526;28;20544;-81
2023/06/11 12:46:38;;;;;;;10.00;4.70;;;28.00;41.60;;;;;;5107033;28;20521;-82
2023/06/11 12:49:06;;;;;;;8.47;4.73;;;28.10;41.50;;;;;;5107627;28;20876;-81